Time;durP1;ratioP1;P1;durP2;ratioP2;P2;SDS_P1;SDS_P2;PMS_P1;PMS_P2;Temp;Humidity;BMP_temperature;BMP_pressure;BME280_temperature;BME280_humidity;BME280_pressure;Samples;Min_cycle;Max_cycle;Signal;HPM_P1;HPM_P2
2022/01/23 00:01:09;;;;;;;53.38;23.57;;;;;;;-0.16;88.62;101503.81;3018598;77;20994;-73
2022/01/23 00:05:07;;;;;;;46.10;25.85;;;;;;;-0.11;88.66;101499.78;3007209;77;20968;-73
2022/01/23 00:09:09;;;;;;;44.08;24.70;;;;;;;0.01;88.52;101503.96;3004114;79;21014;-73
2022/01/23 00:17:33;;;;;;;42.48;23.67;;;;;;;-0.03;88.68;101508.37;2936169;81;21054;-73
2022/01/23 00:21:33;;;;;;;40.40;21.07;;;;;;;0.06;88.54;101498.19;2873219;82;21551;-74
2022/01/23 00:34:04;;;;;;;39.58;21.75;;;;;;;0.20;87.49;101486.61;2957223;80;21024;-72
2022/01/23 00:38:09;;;;;;;39.15;24.45;;;;;;;0.18;87.25;101499.71;2957126;80;21106;-73
2022/01/23 00:42:10;;;;;;;34.53;21.07;;;;;;;0.24;87.12;101493.05;2957170;80;21043;-73
2022/01/23 00:50:21;;;;;;;29.10;20.88;;;;;;;0.16;87.27;101503.23;2957164;80;21087;-73
2022/01/23 00:54:24;;;;;;;41.83;19.85;;;;;;;0.16;87.99;101500.19;2957197;80;21027;-73
2022/01/23 00:58:26;;;;;;;36.45;19.30;;;;;;;0.20;88.74;101503.16;2958788;80;21508;-74
2022/01/23 01:02:29;;;;;;;32.42;16.60;;;;;;;0.22;88.94;101503.98;2957905;80;21321;-73
2022/01/23 01:06:30;;;;;;;31.93;15.68;;;;;;;0.35;88.77;101507.23;2957185;80;20976;-73
2022/01/23 01:10:52;;;;;;;27.40;16.73;;;;;;;0.51;88.54;101505.19;2957229;80;20961;-73
2022/01/23 01:31:44;;;;;;;99.42;51.50;;;;;;;0.84;86.79;101535.48;2939942;80;21085;-73
2022/01/23 01:35:48;;;;;;;43.13;23.98;;;;;;;0.90;86.60;101533.19;2931031;81;21045;-73
2022/01/23 01:39:44;;;;;;;30.12;16.77;;;;;;;0.93;86.50;101523.95;2931130;81;21069;-73
2022/01/23 01:43:48;;;;;;;33.50;16.62;;;;;;;0.83;87.01;101532.45;2932017;81;20982;-73
2022/01/23 01:47:54;;;;;;;25.43;15.20;;;;;;;0.99;87.27;101514.66;2931998;81;21578;-73
2022/01/23 01:51:59;;;;;;;15.48;11.90;;;;;;;1.20;87.09;101500.66;2931934;81;21021;-73
2022/01/23 01:56:00;;;;;;;18.12;11.88;;;;;;;1.35;86.63;101503.80;2931977;81;21045;-73
2022/01/23 02:00:38;;;;;;;21.68;13.48;;;;;;;1.55;86.13;101503.33;2932018;81;21006;-73
2022/01/23 02:08:39;;;;;;;16.50;10.93;;;;;;;1.81;84.72;101514.92;2932411;81;21045;-73
2022/01/23 02:50:42;;;;;;;17.12;13.08;;;;;;;2.29;82.30;101514.98;2932571;81;21010;-73
2022/01/23 02:58:59;;;;;;;25.40;15.53;;;;;;;2.34;82.33;101527.98;2932512;81;21034;-73
2022/01/23 03:03:08;;;;;;;16.85;11.40;;;;;;;2.35;82.46;101521.36;2932404;80;21567;-73
2022/01/23 03:11:25;;;;;;;22.62;13.30;;;;;;;2.42;82.71;101526.88;2933174;81;20998;-73
2022/01/23 03:15:21;;;;;;;18.42;13.98;;;;;;;2.44;82.63;101521.56;2930330;81;21037;-73
2022/01/23 03:32:20;;;;;;;18.32;10.40;;;;;;;2.16;84.38;101519.70;2949900;79;21055;-74
2022/01/23 03:36:06;;;;;;;15.32;9.83;;;;;;;2.05;85.01;101520.00;2954974;80;21019;-73
2022/01/23 03:40:09;;;;;;;19.55;9.93;;;;;;;1.97;85.57;101520.19;2959025;80;21067;-73
2022/01/23 03:44:15;;;;;;;17.12;11.53;;;;;;;1.95;85.88;101530.30;2958342;80;21028;-73
2022/01/23 03:52:18;;;;;;;17.27;12.15;;;;;;;1.99;86.06;101534.13;2958772;80;21071;-73
2022/01/23 03:56:22;;;;;;;13.58;9.20;;;;;;;2.01;86.10;101540.67;2958913;80;21519;-73
2022/01/23 04:00:24;;;;;;;18.12;10.60;;;;;;;2.05;86.27;101537.49;2963492;79;21058;-73
2022/01/23 04:08:42;;;;;;;18.77;9.65;;;;;;;1.99;87.52;101515.76;3014630;79;21000;-73
2022/01/23 04:17:38;;;;;;;18.30;10.53;;;;;;;2.00;87.92;101525.36;3014822;79;21020;-73
2022/01/23 04:34:55;;;;;;;14.65;10.10;;;;;;;1.84;89.53;101523.59;3014858;78;20944;-73
2022/01/23 05:07:48;;;;;;;16.60;11.78;;;;;;;2.31;88.02;101567.47;3014811;78;21039;-73
2022/01/23 05:11:55;;;;;;;12.90;9.38;;;;;;;2.50;87.66;101577.01;3014584;79;21070;-73
2022/01/23 05:15:56;;;;;;;14.33;9.18;;;;;;;2.51;86.92;101587.92;3013773;78;21090;-73
2022/01/23 05:19:58;;;;;;;15.93;11.80;;;;;;;2.29;87.38;101580.62;3015070;78;20999;-74
2022/01/23 05:24:01;;;;;;;23.32;10.60;;;;;;;2.19;88.26;101577.38;2994905;78;21004;-73
2022/01/23 05:28:03;;;;;;;15.28;10.95;;;;;;;2.13;88.63;101569.20;3015484;78;21016;-73
2022/01/23 05:32:10;;;;;;;16.95;10.08;;;;;;;2.20;89.00;101568.59;3015589;78;21047;-74
2022/01/23 05:36:10;;;;;;;17.77;10.63;;;;;;;2.30;88.72;101570.53;3014956;79;21845;-73
2022/01/23 05:40:15;;;;;;;20.10;9.95;;;;;;;2.31;88.82;101564.38;3015085;79;21007;-74
2022/01/23 05:44:16;;;;;;;16.00;11.95;;;;;;;2.30;89.18;101573.16;3015058;79;21031;-73
2022/01/23 05:48:19;;;;;;;31.37;16.20;;;;;;;2.31;89.14;101574.88;3015142;78;21043;-74
2022/01/23 05:52:21;;;;;;;40.78;24.98;;;;;;;2.21;89.49;101562.91;3000858;78;20976;-74
2022/01/23 05:56:23;;;;;;;36.60;24.23;;;;;;;2.27;89.76;101571.93;2962229;80;21003;-73
2022/01/23 06:00:24;;;;;;;21.23;18.75;;;;;;;2.32;89.58;101570.03;2966892;79;21595;-73
2022/01/23 06:04:27;;;;;;;23.22;16.90;;;;;;;2.39;89.56;101575.55;3015341;79;21118;-73
2022/01/23 06:08:28;;;;;;;20.10;14.87;;;;;;;2.42;89.69;101582.03;3015157;79;21015;-73
2022/01/23 06:12:30;;;;;;;24.10;16.32;;;;;;;2.47;89.67;101586.30;3014981;79;20980;-74
2022/01/23 06:16:32;;;;;;;23.40;12.93;;;;;;;2.66;89.45;101585.35;3015166;79;21031;-74
2022/01/23 06:20:33;;;;;;;23.22;15.18;;;;;;;2.76;88.77;101593.37;3015302;79;20996;-74
2022/01/23 06:24:37;;;;;;;19.82;14.65;;;;;;;2.92;88.35;101595.57;3014975;79;21062;-73
2022/01/23 06:28:55;;;;;;;20.12;14.33;;;;;;;3.07;88.01;101605.64;3015334;78;20992;-73
2022/01/23 06:32:57;;;;;;;21.00;12.60;;;;;;;3.25;87.74;101613.43;2997324;79;21030;-74
2022/01/23 06:36:59;;;;;;;18.02;13.40;;;;;;;3.37;87.05;101615.30;2989069;79;21013;-74
2022/01/23 06:41:00;;;;;;;18.62;12.68;;;;;;;3.38;86.05;101613.92;2988743;79;20997;-74
2022/01/23 06:45:03;;;;;;;23.40;15.08;;;;;;;3.39;86.33;101611.69;2988665;79;21009;-74
2022/01/23 06:49:05;;;;;;;27.75;13.78;;;;;;;3.37;86.63;101611.35;2988768;79;20950;-74
2022/01/23 06:53:06;;;;;;;26.77;14.60;;;;;;;3.31;86.90;101615.46;2988929;79;20981;-74
2022/01/23 06:57:08;;;;;;;19.17;11.97;;;;;;;3.24;87.36;101619.59;2989083;79;20985;-73
2022/01/23 07:01:10;;;;;;;18.12;13.32;;;;;;;3.27;87.62;101622.13;2988906;79;20946;-73
2022/01/23 07:05:11;;;;;;;22.48;14.05;;;;;;;3.33;87.63;101624.16;2988918;79;20989;-74
2022/01/23 07:09:13;;;;;;;30.02;18.30;;;;;;;3.38;87.52;101624.91;2989114;79;20993;-74
2022/01/23 07:13:15;;;;;;;35.55;18.30;;;;;;;3.38;87.68;101619.65;2989408;79;21024;-74
2022/01/23 07:17:17;;;;;;;27.55;17.57;;;;;;;3.29;88.45;101626.05;2989407;79;20969;-74
2022/01/23 07:21:19;;;;;;;34.35;16.82;;;;;;;3.31;88.84;101628.61;2989170;79;21001;-74
2022/01/23 07:25:21;;;;;;;26.52;17.12;;;;;;;3.24;89.92;101641.95;2988990;79;20997;-74
2022/01/23 07:29:23;;;;;;;27.15;15.88;;;;;;;3.29;90.33;101647.09;2988874;79;21052;-74
2022/01/23 07:33:25;;;;;;;30.75;18.12;;;;;;;3.24;91.23;101655.10;2988401;78;21064;-74
2022/01/23 07:37:26;;;;;;;37.13;21.25;;;;;;;3.24;91.32;101662.99;2989144;79;21006;-73
2022/01/23 07:41:28;;;;;;;34.10;21.48;;;;;;;3.33;91.54;101664.93;2989085;79;20985;-74
2022/01/23 07:45:30;;;;;;;38.20;24.70;;;;;;;3.31;91.97;101677.27;2989091;79;20989;-75
2022/01/23 07:49:32;;;;;;;36.98;25.45;;;;;;;3.34;92.37;101674.55;2989198;79;20997;-74
2022/01/23 07:53:34;;;;;;;45.25;28.65;;;;;;;3.32;92.48;101682.50;2988748;79;21044;-74
2022/01/23 07:57:36;;;;;;;38.38;25.45;;;;;;;3.33;92.56;101687.29;2988539;79;21021;-74
2022/01/23 08:01:39;;;;;;;37.73;28.90;;;;;;;3.33;92.62;101682.91;2988516;79;21049;-72
2022/01/23 08:05:42;;;;;;;41.77;27.05;;;;;;;3.32;92.80;101683.81;2988625;79;21048;-75
2022/01/23 08:09:44;;;;;;;43.73;28.50;;;;;;;3.39;92.84;101688.45;2988514;79;21009;-74
2022/01/23 08:13:45;;;;;;;45.65;26.25;;;;;;;3.45;92.59;101699.25;2988850;79;21001;-73
2022/01/23 08:17:47;;;;;;;41.70;26.85;;;;;;;3.49;92.22;101707.45;2988759;79;21005;-73
2022/01/23 08:21:49;;;;;;;42.75;25.00;;;;;;;3.60;92.26;101703.19;2988854;79;20961;-74
2022/01/23 08:25:51;;;;;;;38.78;26.45;;;;;;;3.65;91.95;101710.48;2988941;79;20981;-73
2022/01/23 08:29:53;;;;;;;41.05;27.67;;;;;;;3.71;91.92;101708.53;2988846;79;20974;-72
2022/01/23 08:33:54;;;;;;;41.42;23.95;;;;;;;3.71;92.17;101717.75;2952681;79;21072;-73
2022/01/23 08:37:57;;;;;;;33.95;21.97;;;;;;;3.62;92.58;101713.21;2934060;81;21029;-73
2022/01/23 08:41:58;;;;;;;34.55;22.75;;;;;;;3.66;92.88;101720.10;2957933;79;21045;-73
2022/01/23 08:46:00;;;;;;;37.13;21.85;;;;;;;3.65;93.10;101729.78;2969211;79;20996;-70
2022/01/23 08:50:02;;;;;;;30.40;20.20;;;;;;;3.70;93.12;101730.94;2966189;79;20990;-71
2022/01/23 08:54:06;;;;;;;30.48;20.43;;;;;;;3.69;93.32;101729.22;2974307;79;21053;-70
2022/01/23 08:58:08;;;;;;;36.40;21.45;;;;;;;3.65;93.75;101736.36;2934556;81;21013;-71
2022/01/23 09:02:10;;;;;;;33.90;19.35;;;;;;;3.66;93.86;101735.45;2948351;79;21060;-73
2022/01/23 09:06:12;;;;;;;28.52;18.15;;;;;;;3.69;94.13;101737.11;2988652;79;21068;-72
2022/01/23 09:10:13;;;;;;;34.27;20.70;;;;;;;3.62;94.44;101741.69;2987725;79;21037;-70
2022/01/23 09:14:17;;;;;;;35.73;23.07;;;;;;;3.59;94.67;101741.78;2988515;79;21021;-71
2022/01/23 09:18:19;;;;;;;42.88;23.75;;;;;;;3.56;95.08;101741.87;2988881;79;21103;-70
2022/01/23 09:22:20;;;;;;;33.35;21.93;;;;;;;3.56;95.42;101745.39;2988720;79;21395;-71
2022/01/23 09:26:23;;;;;;;31.55;21.27;;;;;;;3.64;95.57;101754.81;2987966;79;21001;-70
2022/01/23 09:30:25;;;;;;;39.23;24.07;;;;;;;3.60;95.94;101756.66;2988487;79;21006;-71
2022/01/23 09:34:31;;;;;;;42.98;21.93;;;;;;;3.55;96.10;101754.19;2988317;78;21029;-70
2022/01/23 09:38:33;;;;;;;;;;;;;;;3.43;96.85;101759.79;2991021;79;21040;-71
2022/01/23 09:42:42;;;;;;;33.63;22.87;;;;;;;3.45;97.54;101761.92;2988718;79;20118;-71
2022/01/23 09:46:47;;;;;;;35.83;24.98;;;;;;;3.39;98.28;101764.73;2987543;78;20993;-71
2022/01/23 09:50:55;;;;;;;36.17;23.20;;;;;;;3.28;99.17;101768.98;2987984;79;21553;-71
2022/01/23 09:55:00;;;;;;;45.93;25.60;;;;;;;3.26;99.78;101766.38;2987637;79;20990;-71
2022/01/23 09:59:01;;;;;;;;;;;;;;;3.32;99.88;101767.11;2963188;79;21029;-71
2022/01/23 10:03:02;;;;;;;45.23;24.47;;;;;;;3.40;99.69;101758.09;2988330;79;20142;-71
2022/01/23 10:07:07;;;;;;;41.70;23.50;;;;;;;3.41;99.74;101758.97;2987486;79;21043;-71
2022/01/23 10:11:12;;;;;;;35.65;20.43;;;;;;;3.44;99.79;101754.94;2987210;79;20985;-72
2022/01/23 10:15:13;;;;;;;41.48;23.30;;;;;;;3.52;99.88;101746.83;2987312;79;20982;-72
2022/01/23 10:19:18;;;;;;;39.13;21.60;;;;;;;3.63;100.00;101744.73;2988293;79;21028;-72
2022/01/23 10:23:20;;;;;;;43.08;22.00;;;;;;;3.67;99.99;101746.83;2988006;79;21580;-72
2022/01/23 10:27:23;;;;;;;31.82;18.07;;;;;;;3.70;100.00;101742.78;2987801;79;21541;-72
2022/01/23 10:31:25;;;;;;;34.50;21.90;;;;;;;3.76;100.00;101741.74;2987277;78;29768;-72
2022/01/23 10:35:27;;;;;;;35.98;19.85;;;;;;;3.80;100.00;101739.42;2987232;79;21099;-71
2022/01/23 10:39:42;;;;;;;24.23;16.55;;;;;;;3.80;100.00;101738.11;2987918;79;21001;-71
2022/01/23 10:48:39;;;;;;;23.60;15.75;;;;;;;3.86;99.82;101739.26;2987464;79;21045;-72
2022/01/23 10:52:45;;;;;;;31.70;16.37;;;;;;;3.90;99.59;101740.00;2987399;79;21016;-72
2022/01/23 10:57:06;;;;;;;24.02;15.08;;;;;;;3.89;99.66;101738.28;2987350;79;21037;-73
2022/01/23 11:01:08;;;;;;;27.10;17.50;;;;;;;3.94;99.74;101750.88;2986918;79;21044;-73
2022/01/23 11:05:17;;;;;;;35.35;20.50;;;;;;;4.07;99.81;101749.56;2987444;79;21057;-73
2022/01/23 11:09:18;;;;;;;34.78;22.32;;;;;;;4.13;100.00;101756.42;2987093;79;21057;-73
2022/01/23 11:17:55;;;;;;;25.88;14.98;;;;;;;4.48;99.67;101739.07;2987544;79;21506;-73
2022/01/23 11:21:59;;;;;;;24.80;15.68;;;;;;;4.70;99.21;101736.11;2987673;79;21001;-73
2022/01/23 11:26:07;;;;;;;28.23;17.35;;;;;;;4.83;97.95;101735.70;2987637;79;21056;-73
2022/01/23 11:30:13;;;;;;;22.20;14.30;;;;;;;4.89;97.06;101739.44;2987388;79;21005;-73
2022/01/23 11:34:15;;;;;;;26.23;16.48;;;;;;;4.82;97.08;101736.62;2988124;78;21057;-73
2022/01/23 11:38:21;;;;;;;30.25;17.25;;;;;;;4.81;96.58;101741.49;2988031;79;21068;-73
2022/01/23 11:51:19;;;;;;;36.17;20.85;;;;;;;4.72;98.14;101742.67;2987919;79;21037;-72
2022/01/23 11:55:07;;;;;;;31.25;18.23;;;;;;;4.70;98.83;101744.50;2984376;79;21052;-73
2022/01/23 11:59:28;;;;;;;133.55;68.65;;;;;;;4.80;99.26;101745.05;2988101;79;21064;-73
2022/01/23 12:03:29;;;;;;;161.25;77.67;;;;;;;4.87;99.14;101757.09;2987019;79;21033;-73
2022/01/23 12:07:30;;;;;;;341.20;175.50;;;;;;;4.91;98.83;101753.43;2987659;79;21401;-73
2022/01/23 12:11:40;;;;;;;231.82;118.08;;;;;;;4.90;98.78;101754.34;2988072;79;20973;-73
2022/01/23 12:20:12;;;;;;;118.15;55.30;;;;;;;5.06;97.90;101753.38;2988174;79;21005;-73
2022/01/23 12:24:16;;;;;;;137.18;70.30;;;;;;;5.19;97.60;101748.52;2988502;79;21033;-73
2022/01/23 12:28:32;;;;;;;100.12;55.15;;;;;;;5.32;97.38;101756.01;2988168;79;21061;-73
2022/01/23 12:32:34;;;;;;;29.32;19.27;;;;;;;5.47;97.04;101750.62;2988438;78;21025;-73
2022/01/23 12:36:40;;;;;;;27.30;15.95;;;;;;;5.48;95.83;101742.63;2988625;79;21021;-73
2022/01/23 12:40:47;;;;;;;21.82;15.98;;;;;;;5.54;95.72;101742.86;2988745;79;20969;-73
2022/01/23 12:44:48;;;;;;;19.00;13.75;;;;;;;5.48;95.61;101747.91;2988751;79;21593;-73
2022/01/23 12:48:51;;;;;;;25.62;13.32;;;;;;;5.37;95.82;101744.34;2988670;79;21081;-73
2022/01/23 12:52:52;;;;;;;15.60;12.63;;;;;;;5.36;95.86;101749.22;2988635;79;21336;-73
2022/01/23 12:56:55;;;;;;;23.45;16.32;;;;;;;5.35;95.69;101738.27;2988950;79;21021;-73
2022/01/23 13:00:59;;;;;;;35.15;17.52;;;;;;;5.35;95.76;101741.38;2988592;79;21052;-72
2022/01/23 13:05:00;;;;;;;42.60;21.85;;;;;;;5.31;96.14;101744.58;2988596;79;20973;-73
2022/01/23 13:17:59;;;;;;;26.10;17.25;;;;;;;5.39;95.24;101737.70;2988593;79;21013;-72
2022/01/23 13:30:35;;;;;;;24.15;17.37;;;;;;;5.29;95.87;101742.45;2988772;79;21009;-72
2022/01/23 13:34:50;;;;;;;26.00;17.10;;;;;;;5.36;95.82;101748.37;2988113;78;21029;-73
2022/01/23 13:38:55;;;;;;;20.75;17.52;;;;;;;5.48;95.68;101764.22;2988662;79;21433;-72
2022/01/23 14:00:14;;;;;;;17.02;11.48;;;;;;;6.01;93.63;101759.16;2985691;79;21403;-76
2022/01/23 14:04:07;;;;;;;17.77;13.60;;;;;;;6.09;93.19;101750.94;2984124;79;20954;-74
2022/01/23 14:08:08;;;;;;;15.28;11.80;;;;;;;6.22;92.84;101753.95;2985695;78;21080;-72
2022/01/23 14:12:15;;;;;;;19.48;14.13;;;;;;;6.24;92.22;101758.27;2960124;79;20985;-73
2022/01/23 14:16:27;;;;;;;19.87;15.08;;;;;;;6.37;92.85;101765.23;2986999;79;21000;-77
2022/01/23 14:20:35;;;;;;;44.65;22.15;;;;;;;6.43;91.65;101765.45;2987487;79;20986;-77
2022/01/23 14:24:38;;;;;;;60.12;32.70;;;;;;;6.41;91.34;101772.11;2987484;79;21060;-75
2022/01/23 14:28:50;;;;;;;33.65;18.70;;;;;;;6.58;92.79;101786.43;2996510;78;21040;-76
2022/01/23 14:32:53;;;;;;;22.65;13.13;;;;;;;6.72;91.89;101789.82;2979012;78;21511;-75
2022/01/23 14:36:59;;;;;;;20.05;14.40;;;;;;;6.83;91.26;101787.59;3048734;78;21042;-75
2022/01/23 14:41:10;;;;;;;17.48;12.45;;;;;;;6.80;89.42;101790.83;3049465;78;21010;-74
2022/01/23 14:45:11;;;;;;;419.43;220.45;;;;;;;6.69;89.53;101782.89;3048330;77;21042;-75
2022/01/23 14:49:22;;;;;;;27.90;16.85;;;;;;;6.64;89.30;101795.42;3048506;78;21010;-76
2022/01/23 14:53:22;;;;;;;39.58;21.40;;;;;;;6.64;89.60;101801.19;3047245;78;21566;-76
2022/01/23 14:57:24;;;;;;;20.82;14.38;;;;;;;6.71;90.08;101804.84;3048484;78;21007;-75
2022/01/23 15:01:26;;;;;;;24.57;17.90;;;;;;;6.78;89.00;101798.84;3007199;79;21061;-76
2022/01/23 15:05:32;;;;;;;51.68;35.30;;;;;;;6.69;88.63;101791.27;3006950;78;21014;-76
2022/01/23 15:09:34;;;;;;;18.80;15.40;;;;;;;6.73;89.10;101789.37;3007547;79;21010;-75
2022/01/23 15:13:36;;;;;;;32.10;19.42;;;;;;;6.75;88.28;101769.85;3007263;79;20968;-76
2022/01/23 15:17:39;;;;;;;63.00;40.25;;;;;;;6.76;88.64;101778.66;3007074;79;20959;-76
2022/01/23 15:21:41;;;;;;;24.63;19.40;;;;;;;6.77;88.42;101773.28;3007551;79;21006;-75
2022/01/23 15:25:45;;;;;;;20.68;15.05;;;;;;;6.81;88.62;101778.00;3007987;79;21065;-72
2022/01/23 15:29:47;;;;;;;22.62;17.12;;;;;;;6.69;87.35;101778.92;2971202;79;22182;-74
2022/01/23 15:33:48;;;;;;;23.15;15.10;;;;;;;6.51;87.31;101783.64;2947361;80;21022;-74
2022/01/23 15:37:50;;;;;;;21.35;16.40;;;;;;;6.39;87.53;101788.50;2951975;80;21033;-75
2022/01/23 15:41:52;;;;;;;18.40;15.43;;;;;;;6.32;87.91;101804.21;2951696;80;21010;-76
2022/01/23 15:45:54;;;;;;;25.43;18.80;;;;;;;6.32;87.98;101809.50;2950300;80;21480;-75
2022/01/23 15:49:55;;;;;;;28.30;18.95;;;;;;;6.34;88.52;101808.97;2950182;80;21027;-74
2022/01/23 15:53:57;;;;;;;31.15;19.80;;;;;;;6.37;87.96;101808.84;2949992;80;21038;-74
2022/01/23 15:57:59;;;;;;;38.00;23.18;;;;;;;6.28;87.51;101813.16;2949881;79;21007;-73
2022/01/23 16:02:00;;;;;;;35.98;23.10;;;;;;;6.22;87.42;101817.38;2950009;80;21003;-74
2022/01/23 16:06:02;;;;;;;33.67;21.30;;;;;;;5.98;87.99;101818.69;2949685;80;21015;-74
2022/01/23 16:10:05;;;;;;;34.60;23.18;;;;;;;5.73;89.18;101822.27;2949728;80;21629;-74
2022/01/23 16:14:07;;;;;;;33.53;23.75;;;;;;;5.53;90.29;101818.56;2949321;80;21102;-75
2022/01/23 16:18:10;;;;;;;32.20;23.60;;;;;;;5.36;91.55;101817.83;2949688;80;21023;-75
2022/01/23 16:22:13;;;;;;;36.65;24.05;;;;;;;5.40;92.14;101816.83;2996472;79;21010;-75
2022/01/23 16:26:17;;;;;;;48.60;33.35;;;;;;;5.43;91.78;101817.16;3012357;79;21074;-75
2022/01/23 16:30:21;;;;;;;44.10;33.30;;;;;;;5.56;92.51;101811.85;3012557;78;21429;-74
2022/01/23 16:34:23;;;;;;;51.20;32.42;;;;;;;5.70;92.71;101821.05;3012109;78;21019;-75
2022/01/23 16:38:25;;;;;;;45.00;31.17;;;;;;;5.85;92.66;101815.18;3021560;78;21535;-74
2022/01/23 16:42:27;;;;;;;47.05;31.90;;;;;;;5.96;92.19;101813.93;2957039;80;21017;-74
2022/01/23 16:46:29;;;;;;;40.88;24.95;;;;;;;6.02;91.72;101816.36;2991779;79;21007;-75
2022/01/23 16:50:32;;;;;;;38.83;28.30;;;;;;;6.05;90.65;101821.52;3021603;78;21078;-75
2022/01/23 16:54:34;;;;;;;37.55;25.45;;;;;;;5.99;90.20;101825.70;2948579;80;20955;-75
2022/01/23 16:58:37;;;;;;;44.88;26.23;;;;;;;5.93;90.21;101821.97;2979348;80;21034;-75
2022/01/23 17:02:39;;;;;;;47.88;30.35;;;;;;;5.93;90.70;101829.42;2973482;80;21006;-75
2022/01/23 17:06:42;;;;;;;45.25;28.38;;;;;;;6.10;90.99;101832.80;2973224;80;21006;-73
2022/01/23 17:10:45;;;;;;;45.52;29.87;;;;;;;6.25;90.85;101833.10;2973214;80;21034;-73
2022/01/23 17:14:46;;;;;;;42.73;26.42;;;;;;;6.30;89.67;101828.52;2973274;80;21719;-75
2022/01/23 17:18:48;;;;;;;41.63;26.17;;;;;;;6.30;88.82;101840.41;2973372;80;21007;-75
2022/01/23 17:22:51;;;;;;;48.87;27.52;;;;;;;6.31;88.89;101832.88;2973209;80;20999;-75
2022/01/23 17:26:52;;;;;;;40.63;25.60;;;;;;;6.28;88.59;101835.62;2972853;80;21054;-74
2022/01/23 17:30:54;;;;;;;39.42;23.50;;;;;;;6.27;88.81;101843.16;2952928;80;20998;-75
2022/01/23 17:34:56;;;;;;;33.30;21.42;;;;;;;6.22;88.73;101842.47;2949251;79;21046;-75
2022/01/23 17:38:57;;;;;;;31.93;23.12;;;;;;;6.12;88.90;101846.81;2972024;80;20998;-74
2022/01/23 17:43:01;;;;;;;32.00;23.32;;;;;;;6.07;88.97;101847.42;2972453;80;20968;-73
2022/01/23 17:47:18;;;;;;;37.63;23.47;;;;;;;5.96;88.88;101849.11;2972311;80;21004;-74
2022/01/23 17:51:13;;;;;;;50.95;26.17;;;;;;;5.84;89.15;101850.44;2969862;80;21018;-73
2022/01/23 17:55:13;;;;;;;35.90;25.52;;;;;;;5.81;90.18;101851.88;2972250;80;21070;-74
2022/01/23 17:59:15;;;;;;;48.58;28.45;;;;;;;5.81;90.45;101853.19;2972873;79;21038;-74
2022/01/23 18:03:17;;;;;;;40.67;26.90;;;;;;;5.82;90.39;101853.59;2973213;80;21431;-74
2022/01/23 18:07:19;;;;;;;36.08;24.50;;;;;;;5.78;90.54;101849.34;2966933;80;21050;-74
2022/01/23 18:11:21;;;;;;;46.30;28.40;;;;;;;5.81;90.67;101846.59;2960447;80;21002;-74
2022/01/23 18:15:23;;;;;;;44.65;25.75;;;;;;;5.80;90.30;101852.79;2970799;79;21094;-74
2022/01/23 18:19:25;;;;;;;34.78;25.25;;;;;;;5.88;90.58;101856.47;2966553;80;21571;-74
2022/01/23 18:23:27;;;;;;;39.50;25.95;;;;;;;5.97;89.97;101863.20;2966990;80;20999;-74
2022/01/23 18:27:29;;;;;;;39.15;26.12;;;;;;;5.97;89.36;101859.23;2968160;80;21069;-74
2022/01/23 18:31:32;;;;;;;38.70;26.05;;;;;;;5.97;89.36;101864.05;2969227;80;21050;-72
2022/01/23 18:35:33;;;;;;;37.95;26.00;;;;;;;5.98;89.16;101852.55;2953081;80;21563;-73
2022/01/23 18:39:36;;;;;;;43.63;26.97;;;;;;;5.99;89.04;101867.96;2948346;80;21090;-75
2022/01/23 18:43:38;;;;;;;45.38;27.52;;;;;;;5.99;89.14;101871.92;3041077;77;21500;-75
2022/01/23 18:47:40;;;;;;;35.68;24.85;;;;;;;6.08;88.94;101873.39;3072318;77;20952;-74
2022/01/23 18:51:46;;;;;;;41.20;25.80;;;;;;;6.07;88.47;101862.42;3049346;77;21011;-74
2022/01/23 18:55:49;;;;;;;53.92;31.65;;;;;;;6.01;88.27;101864.83;3072531;77;21054;-74
2022/01/23 18:59:51;;;;;;;60.12;34.33;;;;;;;5.95;88.20;101868.52;3051921;77;21000;-73
2022/01/23 19:04:04;;;;;;;46.33;28.00;;;;;;;6.03;89.13;101872.23;3039385;76;21018;-73
2022/01/23 19:08:12;;;;;;;48.48;30.27;;;;;;;6.00;88.00;101869.69;3058543;77;20983;-74
2022/01/23 19:12:09;;;;;;;49.53;34.55;;;;;;;6.03;88.44;101876.20;3063201;77;21026;-73
2022/01/23 19:16:11;;;;;;;62.08;42.53;;;;;;;6.00;88.08;101873.20;3037009;77;20987;-73
2022/01/23 19:20:13;;;;;;;57.55;37.63;;;;;;;5.99;88.65;101867.52;3036346;77;21083;-72
2022/01/23 19:24:16;;;;;;;70.05;38.17;;;;;;;6.07;88.81;101875.16;3077277;77;20972;-72
2022/01/23 19:28:18;;;;;;;65.95;42.38;;;;;;;6.14;88.86;101875.35;3071116;76;21022;-72
2022/01/23 19:32:20;;;;;;;65.87;41.98;;;;;;;6.16;88.50;101873.95;3049474;78;21054;-72
2022/01/23 19:36:23;;;;;;;58.05;38.02;;;;;;;6.17;88.60;101870.86;3044613;77;20998;-72
2022/01/23 19:40:43;;;;;;;67.15;42.55;;;;;;;6.20;89.15;101883.52;3081267;77;20948;-72
2022/01/23 19:44:43;;;;;;;70.25;42.23;;;;;;;6.17;88.91;101886.24;3028675;77;20984;-72
2022/01/23 19:48:54;;;;;;;58.02;38.15;;;;;;;6.24;89.16;101888.20;3028191;78;21011;-71
2022/01/23 19:52:49;;;;;;;;;;;;;;;6.30;88.27;101894.59;3063931;77;20900;-72
2022/01/23 19:56:54;;;;;;;45.20;31.55;;;;;;;6.31;87.74;101899.41;3069942;77;20140;-72
2022/01/23 20:00:56;;;;;;;47.67;32.98;;;;;;;6.26;87.87;101898.25;3051789;76;20990;-72
2022/01/23 20:04:58;;;;;;;56.77;36.75;;;;;;;6.26;88.08;101899.13;3020669;78;20998;-72
2022/01/23 20:09:06;;;;;;;62.93;37.63;;;;;;;6.25;88.08;101908.42;3061189;77;21038;-72
2022/01/23 20:13:07;;;;;;;;;;;;;;;6.34;87.96;101912.05;3055797;76;20970;-72
2022/01/23 20:17:09;;;;;;;69.47;33.58;;;;;;;6.31;86.73;101908.20;3065378;77;20572;-72
2022/01/23 20:21:11;;;;;;;57.45;37.33;;;;;;;6.26;86.31;101917.63;3028976;78;20990;-71
2022/01/23 20:25:14;;;;;;;49.93;34.45;;;;;;;6.26;86.79;101918.07;3029128;78;20995;-73
2022/01/23 20:29:16;;;;;;;55.63;36.53;;;;;;;6.27;86.90;101919.79;3041356;77;21112;-72
2022/01/23 20:33:17;;;;;;;68.65;37.90;;;;;;;6.30;86.34;101924.98;3055650;78;21019;-73
2022/01/23 20:37:21;;;;;;;60.25;36.10;;;;;;;6.06;87.38;101920.14;3054836;77;21549;-73
2022/01/23 20:41:24;;;;;;;65.10;36.93;;;;;;;5.97;88.21;101926.59;3055414;77;21065;-72
2022/01/23 20:45:29;;;;;;;47.73;30.43;;;;;;;6.01;88.28;101928.23;3055052;77;21020;-71
2022/01/23 20:49:31;;;;;;;53.90;34.23;;;;;;;5.89;87.46;101932.15;3055075;78;21346;-72
2022/01/23 20:57:41;;;;;;;56.50;35.95;;;;;;;5.79;89.02;101935.58;3101368;75;21034;-71
2022/01/23 21:01:43;;;;;;;51.63;33.30;;;;;;;5.82;88.59;101936.78;3031320;78;21033;-72
2022/01/23 21:05:45;;;;;;;43.25;28.73;;;;;;;5.83;89.01;101931.91;3038449;77;21010;-73
2022/01/23 21:09:47;;;;;;;51.60;31.62;;;;;;;5.94;89.50;101934.63;3057536;77;21030;-73
2022/01/23 21:18:22;;;;;;;42.48;29.55;;;;;;;6.05;89.27;101946.16;3028614;78;20952;-72
2022/01/23 21:22:45;;;;;;;56.40;35.83;;;;;;;6.10;88.66;101953.45;3026342;78;20995;-73
2022/01/23 21:39:27;;;;;;;68.92;41.65;;;;;;;6.16;86.63;101958.51;2978340;79;21053;-74
2022/01/23 21:43:18;;;;;;;102.05;58.65;;;;;;;6.23;87.48;101960.03;2975889;80;21018;-72
2022/01/23 21:47:20;;;;;;;110.03;60.65;;;;;;;6.32;87.10;101953.98;2916047;81;21053;-74
2022/01/23 21:51:23;;;;;;;111.75;60.45;;;;;;;6.09;86.13;101953.94;2950760;80;21022;-73
2022/01/23 21:55:25;;;;;;;127.30;84.03;;;;;;;5.82;86.96;101957.06;2916302;81;20987;-74
2022/01/23 21:59:27;;;;;;;144.53;86.65;;;;;;;5.69;87.61;101963.20;2866096;83;21070;-74
2022/01/23 22:03:31;;;;;;;143.85;94.28;;;;;;;5.72;88.13;101959.16;2866386;81;21066;-74
2022/01/23 22:07:32;;;;;;;85.90;49.67;;;;;;;5.73;87.94;101964.84;2951033;80;20994;-74
2022/01/23 22:11:41;;;;;;;100.97;59.55;;;;;;;5.82;88.28;101955.74;2951504;80;21037;-74
2022/01/23 22:19:55;;;;;;;88.82;51.15;;;;;;;5.92;87.86;101965.53;2951487;80;21043;-74
2022/01/23 22:27:59;;;;;;;83.25;52.15;;;;;;;5.98;87.24;101965.30;3007270;79;20996;-74
2022/01/23 22:32:00;;;;;;;95.28;50.70;;;;;;;5.99;86.97;101960.41;2971481;80;21072;-75
2022/01/23 22:36:02;;;;;;;76.85;47.48;;;;;;;5.84;86.80;101961.36;3006081;79;21073;-74